MVM weather

Machias Valley Airport
Machias, Maine, United States

Public forecast

Using degrees Fahrenheit for public forecast. Weather courtesy of forecast.io.

METAR (pilot weather report)

Closest report is Hancock County-Bar Harbor Airport, 40.7 nm (75.4 km) WSW. Retrieved 2019/08/21 05:56 UTC (51 minutes ago):

KBHB 210556Z AUTO 21004KT 10SM CLR 17/14 A3002 RMK AO2 SLP169 T01670144 10211 20156 58004

TAF (pilot weather forecast)

Closest forecast is Hancock County-Bar Harbor Airport, 40.7 nm (75.4 km) WSW. Retrieved 2019/08/21 06:22 UTC (25 minutes ago):

TAF KBHB 210520Z 2106/2206 22004KT P6SM SKC FM211800 19010KT P6SM VCSH BKN070 FM212200 17006KT P6SM -SHRA OVC050 FM220300 16008KT 3SM -SHRA OVC004 FM220500 19005KT 2SM -SHRA BR OVC002